Terminal Aerodrome Forecast
Issued by NWS Twin Cities, MN

Home | Current Version | Previous Version | Text Only | Print | Product List | Glossary On
Versions: 1 2 3 4 5 6 7 8 9 10 11 12 13 14 15 16 17
000
FTUS43 KMPX 281120
TAFEAU
TAF
KEAU 281120Z 2812/2912 07012KT P6SM VCSH OVC040
      TEMPO 2812/2816 -SHRA SCT025 OVC040
     FM282000 05008KT P6SM VCSH OVC050
     FM290400 03004KT P6SM SCT025 OVC040=

USA.gov is the U.S. government's official web portal to all federal, state and local government web resources and services.